Time;durP1;ratioP1;P1;durP2;ratioP2;P2;SDS_P1;SDS_P2;PMS_P1;PMS_P2;Temp;Humidity;BMP_temperature;BMP_pressure;BME280_temperature;BME280_humidity;BME280_pressure;Samples;Min_cycle;Max_cycle;Signal;HPM_P1;HPM_P2
2022/10/24 00:01:23;;;;;;;18.98;17.17;;;13.10;99.90;;;;;;6185960;23;20170;-93
2022/10/24 00:04:20;;;;;;;;;;;;;;;;;;;;;
2022/10/24 00:07:04;;;;;;;20.15;18.10;;;13.10;99.90;;;;;;6187210;23;20163;-94
2022/10/24 00:09:46;;;;;;;20.58;18.13;;;13.10;99.90;;;;;;6186762;23;20218;-93
2022/10/24 00:12:21;;;;;;;18.27;16.48;;;13.10;99.90;;;;;;6187731;23;20173;-93
2022/10/24 00:14:57;;;;;;;20.08;18.10;;;13.10;99.90;;;;;;6187498;23;20185;-94
2022/10/24 01:16:58;;;;;;;17.63;15.68;;;13.10;99.90;;;;;;6201745;23;20232;-96
2022/10/24 01:40:35;;;;;;;18.45;16.65;;;13.00;99.90;;;;;;6199811;23;20210;-96
2022/10/24 01:43:16;;;;;;;18.92;17.15;;;13.00;99.90;;;;;;6207131;23;20171;-96
2022/10/24 02:58:43;;;;;;;38.15;23.67;;;12.70;99.90;;;;;;6230577;23;20248;-96
2022/10/24 03:22:42;;;;;;;19.92;17.85;;;12.30;99.90;;;;;;6149464;23;20191;-96
2022/10/24 03:32:15;;;;;;;19.20;16.77;;;12.30;99.90;;;;;;6000039;23;20206;-96
2022/10/24 03:34:57;;;;;;;17.05;15.35;;;12.30;99.90;;;;;;6003751;24;20179;-96
2022/10/24 03:41:13;;;;;;;16.88;15.15;;;12.20;99.90;;;;;;6094082;23;20218;-96
2022/10/24 03:44:33;;;;;;;15.50;13.68;;;12.20;99.90;;;;;;6200980;23;20225;-96
2022/10/24 03:47:15;;;;;;;16.48;14.90;;;12.20;99.90;;;;;;6183685;23;20171;-96
2022/10/24 03:50:09;;;;;;;15.25;13.65;;;12.20;99.90;;;;;;6200601;23;20254;-96
2022/10/24 04:03:11;;;;;;;15.25;13.35;;;12.30;99.90;;;;;;6058181;23;20186;-96
2022/10/24 04:05:54;;;;;;;13.60;12.30;;;12.40;99.90;;;;;;6057171;23;20210;-96
2022/10/24 04:15:10;;;;;;;11.88;10.75;;;12.40;99.90;;;;;;6206674;23;20209;-96
2022/10/24 04:17:54;;;;;;;10.82;9.73;;;12.40;99.90;;;;;;6164544;23;20235;-96
2022/10/24 04:20:37;;;;;;;11.63;10.32;;;12.40;99.90;;;;;;6194873;23;20241;-96
2022/10/24 04:23:21;;;;;;;11.35;10.35;;;12.40;99.90;;;;;;6195167;23;20155;-96
2022/10/24 04:26:03;;;;;;;9.75;8.88;;;12.40;99.90;;;;;;6192790;23;20167;-96
2022/10/24 04:28:39;;;;;;;12.27;10.50;;;12.40;99.90;;;;;;6193776;23;20163;-96
2022/10/24 04:31:14;;;;;;;11.13;10.02;;;12.40;99.90;;;;;;6192448;23;20190;-96
2022/10/24 04:33:51;;;;;;;11.88;9.43;;;12.30;99.90;;;;;;6190779;23;20195;-96
2022/10/24 04:36:20;;;;;;;9.93;8.98;;;12.30;99.90;;;;;;6188451;23;20257;-92
2022/10/24 04:38:48;;;;;;;10.30;9.25;;;12.30;99.90;;;;;;6185435;23;20197;-92
2022/10/24 04:41:17;;;;;;;9.82;8.82;;;12.30;99.90;;;;;;6185546;23;20171;-91
2022/10/24 04:43:45;;;;;;;9.40;8.50;;;12.30;99.90;;;;;;6185390;23;20193;-92
2022/10/24 04:46:13;;;;;;;10.50;9.23;;;12.30;99.90;;;;;;6185432;23;20198;-91
2022/10/24 04:48:42;;;;;;;8.40;7.55;;;12.30;99.90;;;;;;6184648;23;20170;-93
2022/10/24 04:51:11;;;;;;;7.40;6.80;;;12.30;99.90;;;;;;6185407;23;20250;-91
2022/10/24 04:53:40;;;;;;;7.43;6.72;;;12.30;99.90;;;;;;6185009;23;20174;-92
2022/10/24 04:56:08;;;;;;;8.90;7.53;;;12.30;99.90;;;;;;6185301;23;20171;-92
2022/10/24 04:58:37;;;;;;;7.97;7.30;;;12.30;99.90;;;;;;6184894;23;20178;-92
2022/10/24 05:01:05;;;;;;;10.50;8.10;;;12.30;99.90;;;;;;6184837;23;20177;-93
2022/10/24 05:03:35;;;;;;;8.88;7.95;;;12.40;99.90;;;;;;6184969;23;20246;-91
2022/10/24 05:06:07;;;;;;;9.43;7.72;;;12.40;99.90;;;;;;6187429;23;20170;-91
2022/10/24 05:08:37;;;;;;;7.75;7.03;;;12.40;99.90;;;;;;6186473;23;20177;-91
2022/10/24 05:11:10;;;;;;;8.18;7.47;;;12.40;99.90;;;;;;6187250;23;20183;-91
2022/10/24 05:13:40;;;;;;;9.52;7.97;;;12.40;99.90;;;;;;6186909;23;20186;-91
2022/10/24 05:16:11;;;;;;;8.48;7.68;;;12.40;99.90;;;;;;6187071;23;20253;-91
2022/10/24 05:18:42;;;;;;;7.70;6.93;;;12.40;99.90;;;;;;6187238;23;20173;-90
2022/10/24 05:21:11;;;;;;;7.53;6.88;;;12.40;99.90;;;;;;6187145;23;20163;-92
2022/10/24 05:23:46;;;;;;;7.78;7.00;;;12.40;99.90;;;;;;6186943;23;20224;-92
2022/10/24 05:26:14;;;;;;;7.88;7.15;;;12.40;99.90;;;;;;6187201;23;20224;-91
2022/10/24 05:28:47;;;;;;;8.43;7.57;;;12.40;99.90;;;;;;6187114;23;20194;-93
2022/10/24 05:31:20;;;;;;;9.10;6.63;;;12.40;99.90;;;;;;6187281;23;20197;-91
2022/10/24 05:33:48;;;;;;;8.25;7.32;;;12.40;99.90;;;;;;6194708;23;20230;-91
2022/10/24 05:36:23;;;;;;;9.27;7.75;;;12.40;99.90;;;;;;6207762;23;20158;-91
2022/10/24 05:38:55;;;;;;;8.48;7.50;;;12.40;99.90;;;;;;6190923;23;20195;-91
2022/10/24 05:41:26;;;;;;;8.38;7.60;;;12.40;99.90;;;;;;6187149;23;20257;-91
2022/10/24 05:43:58;;;;;;;10.02;9.05;;;12.50;99.90;;;;;;6186543;23;20178;-91
2022/10/24 05:46:51;;;;;;;9.75;7.50;;;12.50;99.90;;;;;;6186507;23;20194;-91
2022/10/24 05:49:28;;;;;;;8.73;7.93;;;12.70;99.90;;;;;;6186526;23;20246;-91
2022/10/24 05:52:41;;;;;;;8.32;7.53;;;12.80;99.90;;;;;;6186757;23;20269;-95
2022/10/24 05:55:16;;;;;;;13.00;7.82;;;12.80;99.90;;;;;;6186697;23;20174;-90
2022/10/24 05:58:19;;;;;;;7.90;7.20;;;12.90;99.90;;;;;;6187228;23;20174;-92
2022/10/24 06:01:15;;;;;;;8.07;6.68;;;12.90;99.90;;;;;;6183745;23;20178;-95
2022/10/24 06:04:04;;;;;;;9.88;8.43;;;12.90;99.90;;;;;;6186335;23;20257;-93
2022/10/24 06:06:54;;;;;;;9.60;8.73;;;12.90;99.90;;;;;;6186389;23;20224;-92
2022/10/24 06:09:23;;;;;;;9.73;8.73;;;13.00;99.90;;;;;;6186496;23;20194;-89
2022/10/24 06:11:59;;;;;;;11.55;10.35;;;12.90;99.90;;;;;;6186393;23;20421;-94
2022/10/24 06:14:35;;;;;;;10.00;9.02;;;13.00;99.90;;;;;;6186273;23;20181;-95
2022/10/24 06:17:07;;;;;;;10.13;9.25;;;12.90;99.90;;;;;;6186014;23;20174;-96
2022/10/24 06:19:40;;;;;;;11.20;10.10;;;12.90;99.90;;;;;;6186718;23;20191;-96
2022/10/24 06:22:09;;;;;;;11.90;10.65;;;13.00;99.90;;;;;;6187896;23;20170;-91
2022/10/24 06:24:39;;;;;;;15.30;11.02;;;12.90;99.90;;;;;;6186749;23;20171;-86
2022/10/24 06:27:09;;;;;;;26.85;11.82;;;12.90;99.90;;;;;;6187334;23;20301;-95
2022/10/24 06:29:40;;;;;;;11.52;10.52;;;12.90;99.90;;;;;;6185084;23;20210;-95
2022/10/24 06:32:22;;;;;;;13.57;11.93;;;12.90;99.90;;;;;;6183145;23;20204;-96
2022/10/24 06:34:51;;;;;;;13.52;11.43;;;12.90;99.90;;;;;;6183707;23;20185;-96
2022/10/24 06:37:19;;;;;;;13.82;11.70;;;12.90;99.90;;;;;;6183776;23;20179;-96
2022/10/24 06:39:47;;;;;;;16.08;10.73;;;12.90;99.90;;;;;;6182996;23;20250;-96
2022/10/24 06:42:17;;;;;;;15.73;12.27;;;12.90;99.90;;;;;;6183732;23;20170;-96
2022/10/24 06:44:45;;;;;;;13.75;12.40;;;13.00;99.90;;;;;;6183079;23;20174;-96
2022/10/24 06:47:14;;;;;;;15.52;12.45;;;13.00;99.90;;;;;;6185765;23;20170;-96
2022/10/24 06:49:42;;;;;;;15.77;11.93;;;13.00;99.90;;;;;;6184732;23;20195;-96
2022/10/24 06:52:11;;;;;;;16.58;12.63;;;13.00;99.90;;;;;;6185222;23;20190;-94
2022/10/24 06:54:44;;;;;;;13.13;11.93;;;13.10;99.90;;;;;;6185091;23;20178;-93
2022/10/24 06:57:21;;;;;;;13.63;12.20;;;13.10;99.90;;;;;;6186614;23;20177;-93
2022/10/24 06:59:55;;;;;;;14.77;12.57;;;13.20;99.90;;;;;;6185749;23;20196;-94
2022/10/24 07:02:23;;;;;;;18.33;12.63;;;13.30;99.90;;;;;;6186020;23;20205;-96
2022/10/24 07:04:52;;;;;;;20.30;12.57;;;13.30;99.90;;;;;;6185160;23;20178;-96
2022/10/24 07:07:21;;;;;;;16.48;11.52;;;13.40;99.90;;;;;;6185392;23;20178;-96
2022/10/24 07:09:54;;;;;;;12.70;11.50;;;13.50;99.90;;;;;;6185237;23;20214;-96
2022/10/24 07:12:24;;;;;;;10.60;9.55;;;13.60;99.90;;;;;;6185800;23;20187;-96
2022/10/24 07:14:52;;;;;;;11.55;10.45;;;13.60;99.90;;;;;;6185469;23;20190;-96
2022/10/24 07:17:21;;;;;;;21.73;10.65;;;13.60;99.90;;;;;;6185274;23;20174;-95
2022/10/24 07:19:53;;;;;;;11.13;10.02;;;13.50;99.90;;;;;;6185180;23;20264;-95
2022/10/24 07:22:23;;;;;;;10.32;9.40;;;13.50;99.90;;;;;;6186391;23;20237;-96
2022/10/24 07:24:54;;;;;;;18.95;10.02;;;13.40;99.90;;;;;;6185588;23;20182;-96
2022/10/24 07:27:24;;;;;;;12.90;10.02;;;13.30;99.90;;;;;;6185452;23;20250;-95
2022/10/24 07:29:53;;;;;;;11.82;10.60;;;13.30;99.90;;;;;;6184668;23;20191;-96
2022/10/24 07:32:22;;;;;;;10.90;9.60;;;13.20;99.90;;;;;;6185457;23;20195;-96
2022/10/24 07:34:54;;;;;;;10.75;9.73;;;13.20;99.90;;;;;;6185628;23;20178;-96
2022/10/24 07:37:25;;;;;;;9.52;8.63;;;13.10;99.90;;;;;;6185407;23;20224;-96
2022/10/24 07:39:54;;;;;;;12.00;10.77;;;13.10;99.90;;;;;;6185534;23;20194;-95
2022/10/24 07:42:26;;;;;;;11.38;10.25;;;13.20;99.90;;;;;;6185600;23;20163;-95
2022/10/24 07:44:55;;;;;;;10.07;9.18;;;13.20;99.90;;;;;;6185436;23;20171;-96
2022/10/24 07:47:23;;;;;;;12.23;10.93;;;13.20;99.90;;;;;;6185196;23;20174;-96
2022/10/24 07:49:55;;;;;;;13.73;12.20;;;13.20;99.90;;;;;;6184713;23;20217;-95
2022/10/24 07:52:23;;;;;;;14.90;12.20;;;13.20;99.90;;;;;;6185508;23;20181;-96
2022/10/24 07:54:54;;;;;;;13.93;12.60;;;13.30;99.90;;;;;;6185067;23;20261;-96
2022/10/24 07:57:27;;;;;;;13.38;11.98;;;13.30;99.90;;;;;;6185021;23;20190;-96
2022/10/24 07:59:56;;;;;;;13.05;11.75;;;13.30;99.90;;;;;;6184609;23;20206;-96
2022/10/24 08:02:24;;;;;;;12.25;11.07;;;13.30;99.90;;;;;;6184749;23;20178;-96
2022/10/24 08:04:53;;;;;;;13.82;12.63;;;13.30;99.90;;;;;;6185055;23;20181;-96
2022/10/24 08:07:28;;;;;;;14.85;13.45;;;13.30;99.90;;;;;;6185328;23;20230;-96
2022/10/24 08:09:57;;;;;;;12.90;11.65;;;13.30;99.90;;;;;;6184813;23;20201;-96
2022/10/24 08:12:27;;;;;;;18.45;12.45;;;13.40;99.90;;;;;;6184971;23;20190;-96
2022/10/24 08:14:56;;;;;;;14.82;13.52;;;13.30;99.90;;;;;;6182488;23;20234;-95
2022/10/24 08:17:35;;;;;;;19.75;15.32;;;13.40;99.90;;;;;;6185016;23;20178;-96
2022/10/24 08:20:04;;;;;;;16.38;14.68;;;13.40;99.90;;;;;;6185320;23;20265;-96
2022/10/24 08:22:33;;;;;;;26.60;15.35;;;13.50;99.90;;;;;;6185225;23;20180;-96
2022/10/24 08:25:04;;;;;;;18.73;15.60;;;13.50;99.90;;;;;;6184890;23;20185;-96
2022/10/24 08:27:38;;;;;;;20.85;15.35;;;13.60;99.90;;;;;;6184735;23;20171;-96
2022/10/24 08:30:08;;;;;;;17.35;15.13;;;13.60;99.90;;;;;;6183958;23;20197;-96
2022/10/24 08:32:39;;;;;;;14.90;12.07;;;13.70;99.90;;;;;;6185223;23;20226;-95
2022/10/24 08:35:09;;;;;;;14.18;12.35;;;13.80;99.90;;;;;;6185200;23;20202;-96
2022/10/24 08:37:41;;;;;;;14.02;12.57;;;13.80;99.90;;;;;;6186015;23;20171;-96
2022/10/24 08:40:15;;;;;;;13.20;12.00;;;13.90;99.90;;;;;;6186359;23;20194;-96
2022/10/24 08:42:50;;;;;;;12.63;11.40;;;14.00;99.90;;;;;;6191674;23;20162;-96
2022/10/24 08:45:29;;;;;;;16.10;12.60;;;14.20;99.90;;;;;;6211933;23;20151;-96
2022/10/24 08:48:07;;;;;;;13.23;12.02;;;14.30;99.90;;;;;;6209078;23;20162;-96
2022/10/24 08:51:24;;;;;;;13.13;11.88;;;14.50;99.90;;;;;;6188505;23;20198;-96
2022/10/24 08:58:12;;;;;;;16.00;12.30;;;14.80;99.90;;;;;;5980147;23;20251;-96
2022/10/24 09:01:02;;;;;;;16.23;11.93;;;14.80;99.90;;;;;;6044800;23;20204;-95
2022/10/24 09:07:24;;;;;;;14.23;10.93;;;14.90;99.90;;;;;;6040836;23;20215;-96
2022/10/24 09:10:10;;;;;;;12.43;11.23;;;14.90;99.90;;;;;;6064171;23;20247;-96
2022/10/24 09:12:48;;;;;;;16.65;11.63;;;15.00;99.90;;;;;;6065709;23;20248;-96
2022/10/24 09:15:22;;;;;;;16.40;12.68;;;15.00;99.90;;;;;;6065127;23;20184;-96
2022/10/24 09:17:53;;;;;;;11.88;10.68;;;15.00;99.90;;;;;;6127499;23;20174;-96
2022/10/24 09:20:24;;;;;;;11.82;10.45;;;15.10;99.90;;;;;;6184712;23;20201;-96
2022/10/24 09:22:54;;;;;;;10.52;9.48;;;15.20;99.90;;;;;;6184880;23;20179;-95
2022/10/24 09:25:30;;;;;;;11.20;9.90;;;15.30;99.90;;;;;;6184720;23;20178;-96
2022/10/24 09:28:25;;;;;;;12.00;9.05;;;15.40;99.90;;;;;;6184790;23;20229;-96
2022/10/24 09:38:47;;;;;;;12.07;10.90;;;15.70;99.90;;;;;;6094574;23;20177;-96
2022/10/24 09:42:00;;;;;;;13.00;10.27;;;15.80;99.90;;;;;;6037202;23;20185;-95
2022/10/24 09:45:30;;;;;;;12.02;10.35;;;15.80;99.90;;;;;;6036297;23;20218;-96
2022/10/24 09:52:12;;;;;;;13.85;12.13;;;15.90;99.90;;;;;;6087284;23;20173;-95
2022/10/24 09:55:10;;;;;;;13.55;12.15;;;15.80;99.90;;;;;;6095691;23;20189;-96
2022/10/24 09:57:43;;;;;;;13.43;12.02;;;15.90;99.90;;;;;;6095544;23;20180;-96
2022/10/24 10:00:28;;;;;;;23.45;12.90;;;15.90;99.90;;;;;;6095398;23;20271;-95
2022/10/24 10:03:03;;;;;;;15.90;11.48;;;15.90;99.90;;;;;;6186544;23;20173;-96
2022/10/24 10:05:47;;;;;;;12.18;10.73;;;15.90;99.90;;;;;;6187674;23;20181;-95
2022/10/24 10:08:22;;;;;;;13.90;11.48;;;15.80;99.90;;;;;;6185656;23;20181;-95
2022/10/24 10:11:04;;;;;;;21.15;12.75;;;15.80;99.90;;;;;;6186259;23;20182;-95
2022/10/24 10:13:53;;;;;;;12.70;11.38;;;15.80;99.90;;;;;;6180881;23;20199;-96
2022/10/24 10:16:33;;;;;;;13.20;11.73;;;15.90;99.90;;;;;;6186369;23;20185;-96
2022/10/24 10:19:15;;;;;;;13.73;11.48;;;16.00;99.90;;;;;;6186017;23;20221;-95
2022/10/24 10:21:59;;;;;;;12.35;10.70;;;16.00;99.90;;;;;;6186280;23;20178;-96
2022/10/24 10:24:46;;;;;;;11.05;9.85;;;16.10;99.90;;;;;;6185954;23;20170;-95
2022/10/24 10:27:35;;;;;;;11.45;10.43;;;16.20;99.90;;;;;;6184462;23;20190;-95
2022/10/24 10:30:22;;;;;;;10.98;9.43;;;16.40;99.90;;;;;;6184999;23;20199;-96
2022/10/24 10:36:05;;;;;;;15.68;9.30;;;16.60;99.90;;;;;;6182137;23;20232;-95
2022/10/24 10:38:57;;;;;;;11.45;10.13;;;16.70;99.90;;;;;;6185138;23;20174;-96
2022/10/24 10:41:50;;;;;;;11.35;10.13;;;16.90;99.90;;;;;;6185706;23;20174;-95
2022/10/24 10:44:42;;;;;;;12.02;10.18;;;17.30;99.90;;;;;;6185662;23;20178;-95
2022/10/24 10:47:35;;;;;;;9.88;8.88;;;17.40;99.90;;;;;;6185720;23;20234;-96
2022/10/24 10:50:34;;;;;;;10.35;8.93;;;17.60;99.90;;;;;;6185175;23;20210;-95
2022/10/24 11:00:14;;;;;;;9.65;8.52;;;17.60;99.90;;;;;;6166136;23;20194;-95
2022/10/24 11:03:12;;;;;;;11.10;8.38;;;17.60;99.90;;;;;;6185858;23;20176;-96
2022/10/24 11:06:19;;;;;;;9.18;8.27;;;17.50;99.90;;;;;;6180436;23;20174;-95
2022/10/24 11:09:31;;;;;;;9.00;8.20;;;17.50;99.90;;;;;;6182043;23;20202;-95
2022/10/24 11:12:21;;;;;;;7.82;7.13;;;17.50;99.90;;;;;;6185468;23;20178;-96
2022/10/24 11:15:05;;;;;;;8.82;7.35;;;17.40;99.90;;;;;;6185568;23;20199;-95
2022/10/24 11:17:41;;;;;;;10.90;8.93;;;17.40;99.90;;;;;;6185564;23;20175;-95
2022/10/24 11:20:20;;;;;;;12.15;7.55;;;17.50;99.90;;;;;;6185518;23;20201;-95
2022/10/24 11:22:55;;;;;;;7.15;6.50;;;17.50;99.90;;;;;;6185783;23;20174;-94
2022/10/24 11:25:36;;;;;;;11.70;8.13;;;17.60;99.90;;;;;;6185747;23;20245;-95
2022/10/24 11:28:16;;;;;;;8.55;7.70;;;17.70;99.90;;;;;;6185443;23;20178;-95
2022/10/24 11:30:53;;;;;;;11.82;7.10;;;17.80;99.90;;;;;;6184626;23;20241;-94
2022/10/24 11:33:25;;;;;;;6.28;5.68;;;18.00;99.90;;;;;;6185307;23;20225;-95
2022/10/24 11:36:06;;;;;;;9.93;6.22;;;18.20;99.90;;;;;;6185075;23;20186;-95
2022/10/24 11:38:43;;;;;;;8.13;7.10;;;18.50;99.90;;;;;;6186567;23;20233;-94
2022/10/24 11:41:47;;;;;;;7.30;6.32;;;19.00;99.90;;;;;;6185801;23;20178;-94
2022/10/24 11:44:44;;;;;;;11.05;6.63;;;19.40;99.90;;;;;;6185406;23;20174;-95
2022/10/24 11:47:53;;;;;;;6.65;6.05;;;19.60;99.90;;;;;;6186262;23;20166;-95
2022/10/24 11:50:29;;;;;;;5.80;5.25;;;19.80;99.90;;;;;;6144489;23;20233;-95
2022/10/24 11:53:04;;;;;;;5.85;5.35;;;20.00;99.90;;;;;;6212486;23;20181;-96
2022/10/24 11:55:37;;;;;;;6.43;4.53;;;20.30;99.90;;;;;;6193352;23;20190;-95
2022/10/24 11:58:13;;;;;;;5.03;4.60;;;20.50;99.90;;;;;;6185212;23;20249;-95
2022/10/24 12:01:03;;;;;;;4.93;4.50;;;20.80;99.90;;;;;;6184129;23;20194;-96
2022/10/24 12:04:05;;;;;;;8.00;5.40;;;20.70;99.90;;;;;;6185021;23;20180;-96
2022/10/24 12:06:59;;;;;;;6.03;5.30;;;20.50;99.90;;;;;;6182191;23;20174;-95
2022/10/24 12:09:45;;;;;;;6.90;5.43;;;20.60;99.90;;;;;;6183816;23;20194;-95
2022/10/24 12:12:30;;;;;;;8.15;5.05;;;20.60;99.90;;;;;;6185093;23;20234;-95
2022/10/24 12:15:11;;;;;;;6.38;4.90;;;20.50;99.90;;;;;;6185270;23;20217;-95
2022/10/24 12:18:05;;;;;;;5.95;4.82;;;20.50;99.90;;;;;;6185154;23;20166;-95
2022/10/24 12:20:34;;;;;;;7.13;5.32;;;20.30;99.90;;;;;;6175499;23;20191;-95
2022/10/24 12:23:04;;;;;;;6.25;5.70;;;20.30;99.90;;;;;;6185270;23;20175;-96
2022/10/24 12:25:35;;;;;;;10.45;5.05;;;20.30;99.90;;;;;;6185239;23;20173;-96
2022/10/24 12:28:07;;;;;;;5.60;5.10;;;20.20;99.90;;;;;;6185044;23;20189;-96
2022/10/24 12:30:37;;;;;;;5.93;5.22;;;20.10;99.90;;;;;;6184593;23;20244;-95
2022/10/24 12:33:13;;;;;;;5.93;5.43;;;20.10;99.90;;;;;;6185591;23;20181;-95
2022/10/24 12:35:56;;;;;;;7.60;5.68;;;20.10;99.90;;;;;;6184287;23;20186;-95
2022/10/24 12:39:10;;;;;;;5.82;5.38;;;20.10;99.90;;;;;;6184187;23;20257;-96
2022/10/24 12:41:44;;;;;;;5.60;5.13;;;20.20;99.90;;;;;;6185130;23;20181;-95
2022/10/24 12:44:49;;;;;;;6.93;6.03;;;20.20;99.90;;;;;;6185250;23;20166;-95
2022/10/24 12:47:39;;;;;;;7.15;6.45;;;20.30;99.90;;;;;;6184927;23;20166;-95
2022/10/24 12:50:53;;;;;;;6.88;6.10;;;20.40;99.90;;;;;;6184155;23;20198;-95
2022/10/24 12:53:38;;;;;;;8.15;5.20;;;20.50;99.90;;;;;;6132886;23;20249;-95
2022/10/24 12:56:14;;;;;;;5.53;5.03;;;20.50;99.90;;;;;;6185018;23;20190;-95
2022/10/24 12:58:58;;;;;;;6.07;5.47;;;20.50;99.90;;;;;;6185005;23;20170;-96
2022/10/24 13:01:33;;;;;;;6.65;5.72;;;20.50;99.90;;;;;;6184738;23;20254;-94
2022/10/24 13:04:37;;;;;;;7.03;5.50;;;20.50;99.90;;;;;;6184759;23;20248;-95
2022/10/24 13:07:27;;;;;;;12.32;6.75;;;20.60;99.90;;;;;;6184562;23;20173;-96
2022/10/24 13:10:13;;;;;;;6.13;5.53;;;20.80;99.90;;;;;;6184724;23;20190;-95
2022/10/24 13:12:55;;;;;;;6.63;6.10;;;20.70;99.90;;;;;;6185187;23;20166;-95
2022/10/24 13:15:31;;;;;;;7.05;6.35;;;20.50;99.90;;;;;;6185078;23;20225;-95
2022/10/24 13:18:13;;;;;;;7.35;6.68;;;20.60;99.90;;;;;;6184592;23;20205;-95
2022/10/24 13:20:49;;;;;;;6.75;6.15;;;20.80;99.90;;;;;;6184832;23;20190;-94
2022/10/24 13:23:24;;;;;;;7.53;6.00;;;20.80;99.90;;;;;;6184775;23;20193;-95
2022/10/24 13:25:59;;;;;;;7.55;6.85;;;20.90;99.90;;;;;;6185664;23;20177;-96
2022/10/24 13:28:39;;;;;;;10.48;7.97;;;20.90;99.90;;;;;;6186158;23;20166;-96
2022/10/24 13:35:00;;;;;;;8.77;8.07;;;20.80;99.90;;;;;;6066712;23;20177;-96
2022/10/24 13:37:56;;;;;;;8.20;7.22;;;20.70;99.90;;;;;;6186612;23;20174;-95
2022/10/24 13:40:49;;;;;;;10.05;8.45;;;20.60;99.90;;;;;;6186090;23;20198;-95
2022/10/24 13:43:33;;;;;;;10.55;9.43;;;20.50;99.90;;;;;;6186099;23;20182;-95
2022/10/24 13:46:09;;;;;;;10.18;8.32;;;20.40;99.90;;;;;;6186355;23;20178;-96
2022/10/24 13:48:48;;;;;;;9.45;8.68;;;20.40;99.90;;;;;;6186301;23;20193;-95
2022/10/24 13:51:20;;;;;;;8.07;7.38;;;20.50;99.90;;;;;;6186325;23;20166;-96
2022/10/24 13:53:53;;;;;;;9.88;8.88;;;20.60;99.90;;;;;;6186759;23;20170;-95
2022/10/24 13:56:25;;;;;;;9.23;8.35;;;20.70;99.90;;;;;;6186507;23;20265;-94
2022/10/24 13:58:58;;;;;;;10.25;9.23;;;20.80;99.90;;;;;;6185754;23;20202;-95
2022/10/24 14:01:30;;;;;;;20.02;9.85;;;21.00;99.90;;;;;;6186010;23;20177;-96
2022/10/24 14:04:00;;;;;;;12.80;8.85;;;21.00;99.90;;;;;;6186135;23;20174;-95
2022/10/24 14:06:33;;;;;;;10.23;9.20;;;21.10;99.90;;;;;;6186850;23;20171;-95
2022/10/24 14:09:08;;;;;;;9.85;8.90;;;21.10;99.90;;;;;;6185872;23;20197;-96
2022/10/24 14:11:41;;;;;;;11.07;9.98;;;21.00;99.90;;;;;;6185998;23;20178;-96
2022/10/24 14:14:28;;;;;;;14.85;11.63;;;20.90;99.90;;;;;;6186457;23;20189;-95
2022/10/24 14:17:08;;;;;;;14.55;13.23;;;20.70;99.90;;;;;;6186554;23;20206;-96
2022/10/24 14:19:40;;;;;;;14.82;13.25;;;20.40;99.90;;;;;;6185732;23;20194;-95
2022/10/24 14:22:34;;;;;;;16.98;13.13;;;20.40;99.90;;;;;;6185968;23;20174;-95
2022/10/24 14:27:53;;;;;;;14.65;12.93;;;20.00;99.90;;;;;;6186191;23;20222;-95
2022/10/24 14:30:37;;;;;;;17.48;12.38;;;19.90;99.90;;;;;;6185001;23;20229;-95
2022/10/24 14:33:29;;;;;;;13.50;11.60;;;19.70;99.90;;;;;;6186027;23;20198;-95
2022/10/24 14:36:06;;;;;;;21.38;13.45;;;19.60;99.90;;;;;;6185598;23;20194;-95
2022/10/24 14:38:46;;;;;;;13.77;12.52;;;19.50;99.90;;;;;;6185147;23;20178;-96
2022/10/24 14:41:47;;;;;;;16.63;12.50;;;19.30;99.90;;;;;;6186219;23;20229;-95
2022/10/24 14:44:21;;;;;;;13.18;11.65;;;19.10;99.90;;;;;;6151553;23;20252;-95
2022/10/24 14:47:15;;;;;;;13.02;11.52;;;18.90;99.90;;;;;;6185932;23;20178;-95
2022/10/24 14:53:23;;;;;;;13.18;11.00;;;18.50;99.90;;;;;;6183329;23;20193;-95
2022/10/24 14:56:59;;;;;;;11.77;10.23;;;18.30;99.90;;;;;;6185793;23;20289;-96
2022/10/24 14:59:56;;;;;;;13.05;11.65;;;18.10;99.90;;;;;;6196874;23;20201;-94
2022/10/24 15:02:53;;;;;;;17.35;14.57;;;18.00;99.90;;;;;;6194806;23;20198;-94
2022/10/24 15:06:17;;;;;;;;;;;;;;;;;;;;;
2022/10/24 15:09:15;;;;;;;21.90;14.52;;;17.90;99.90;;;;;;6135230;23;20195;-96
2022/10/24 15:11:48;;;;;;;17.52;12.95;;;17.90;99.90;;;;;;6185645;23;20171;-95
2022/10/24 15:14:38;;;;;;;13.90;12.43;;;17.90;99.90;;;;;;6185227;23;20191;-94
2022/10/24 15:17:40;;;;;;;13.60;12.45;;;17.80;99.90;;;;;;6185823;23;20187;-95
2022/10/24 15:27:37;;;;;;;15.55;12.98;;;17.60;99.90;;;;;;6115424;23;20170;-96
2022/10/24 15:30:24;;;;;;;17.27;13.25;;;17.60;99.90;;;;;;6184649;23;20204;-94
2022/10/24 15:37:12;;;;;;;15.02;13.68;;;17.40;99.90;;;;;;6180602;23;20268;-95
2022/10/24 15:40:42;;;;;;;17.08;13.82;;;17.40;99.90;;;;;;6184391;23;20230;-94
2022/10/24 15:49:57;;;;;;;15.02;13.43;;;17.20;99.90;;;;;;6183149;23;20198;-94
2022/10/24 15:52:47;;;;;;;15.75;14.07;;;17.20;99.90;;;;;;6184811;23;20260;-95
2022/10/24 15:55:33;;;;;;;14.70;13.23;;;17.20;99.90;;;;;;6185174;23;20170;-95
2022/10/24 15:58:31;;;;;;;19.50;14.23;;;17.10;99.90;;;;;;6182505;23;20202;-95
2022/10/24 16:01:35;;;;;;;15.23;13.75;;;17.10;99.90;;;;;;6186415;23;20174;-94
2022/10/24 16:04:17;;;;;;;21.55;15.38;;;17.10;99.90;;;;;;6185117;23;20178;-95
2022/10/24 16:06:49;;;;;;;17.50;14.45;;;17.00;99.90;;;;;;6185264;23;20163;-95
2022/10/24 16:09:35;;;;;;;16.45;14.80;;;16.90;99.90;;;;;;6184212;23;20190;-95
2022/10/24 16:12:03;;;;;;;17.95;12.90;;;16.90;99.90;;;;;;6185191;23;20222;-96
2022/10/24 16:14:37;;;;;;;15.23;13.07;;;16.80;99.90;;;;;;6184703;23;20182;-95
2022/10/24 16:17:12;;;;;;;14.18;12.88;;;16.70;99.90;;;;;;6184833;23;20198;-94
2022/10/24 16:19:48;;;;;;;16.42;14.15;;;16.80;99.90;;;;;;6184569;23;20216;-96
2022/10/24 16:22:17;;;;;;;16.52;13.82;;;16.80;99.90;;;;;;6188375;23;20185;-94
2022/10/24 16:24:59;;;;;;;16.15;13.65;;;16.70;99.90;;;;;;6184578;23;20174;-95
2022/10/24 16:27:34;;;;;;;16.60;14.52;;;16.70;99.90;;;;;;6185011;23;20224;-94
2022/10/24 16:30:03;;;;;;;18.27;14.10;;;16.70;99.90;;;;;;6184919;23;20197;-94
2022/10/24 16:32:32;;;;;;;13.95;12.68;;;16.70;99.90;;;;;;6185197;23;20178;-95
2022/10/24 16:35:04;;;;;;;16.20;14.48;;;16.70;99.90;;;;;;6185023;23;20229;-95
2022/10/24 16:37:38;;;;;;;15.35;13.75;;;16.70;99.90;;;;;;6184559;23;20194;-94
2022/10/24 16:40:19;;;;;;;18.25;14.38;;;16.70;99.90;;;;;;6184333;23;20277;-94
2022/10/24 16:43:05;;;;;;;18.20;15.35;;;16.70;99.90;;;;;;6184828;23;20181;-94
2022/10/24 16:46:00;;;;;;;19.88;14.27;;;16.70;99.90;;;;;;6184640;23;20176;-95
2022/10/24 16:48:55;;;;;;;19.02;15.15;;;16.70;99.90;;;;;;6176090;23;20222;-95
2022/10/24 16:51:31;;;;;;;20.13;14.30;;;16.70;99.90;;;;;;6185293;23;20162;-95
2022/10/24 16:54:04;;;;;;;27.33;15.23;;;16.70;99.90;;;;;;6184812;23;20174;-94
2022/10/24 16:56:42;;;;;;;22.15;16.08;;;16.70;99.90;;;;;;6184703;23;20174;-95
2022/10/24 16:59:29;;;;;;;17.48;15.55;;;16.60;99.90;;;;;;6184329;23;20194;-96
2022/10/24 17:01:58;;;;;;;19.25;16.15;;;16.50;99.90;;;;;;6186280;23;20177;-96
2022/10/24 17:04:29;;;;;;;18.27;16.50;;;16.40;99.90;;;;;;6186479;23;20253;-95
2022/10/24 17:07:03;;;;;;;23.13;20.67;;;16.40;99.90;;;;;;6186376;23;20170;-96
2022/10/24 17:09:31;;;;;;;31.77;22.15;;;16.30;99.90;;;;;;6186211;23;20198;-95
2022/10/24 17:12:01;;;;;;;20.90;18.48;;;16.20;99.90;;;;;;6187015;23;20193;-96
2022/10/24 17:14:32;;;;;;;20.38;18.27;;;16.10;99.90;;;;;;6186526;23;20186;-96
2022/10/24 17:17:00;;;;;;;24.50;19.30;;;16.00;99.90;;;;;;6186662;23;20170;-96
2022/10/24 17:19:34;;;;;;;22.98;20.60;;;16.00;99.90;;;;;;6187679;23;20194;-96
2022/10/24 17:22:07;;;;;;;23.70;19.33;;;15.90;99.90;;;;;;6190849;23;20170;-96
2022/10/24 17:24:44;;;;;;;22.58;20.23;;;15.90;99.90;;;;;;6190859;23;20174;-96
2022/10/24 17:27:20;;;;;;;20.30;17.98;;;15.90;99.90;;;;;;6194820;23;20198;-96
2022/10/24 17:29:50;;;;;;;18.25;16.45;;;15.90;99.90;;;;;;6192651;23;20194;-96
2022/10/24 17:32:27;;;;;;;14.98;13.48;;;15.80;99.90;;;;;;6200676;23;20198;-96
2022/10/24 17:34:59;;;;;;;15.65;14.07;;;15.80;99.90;;;;;;6193228;23;20240;-96
2022/10/24 17:37:39;;;;;;;18.00;13.27;;;15.80;99.90;;;;;;6189356;23;20194;-96
2022/10/24 17:40:14;;;;;;;15.38;12.65;;;15.80;99.90;;;;;;6186352;23;20194;-96
2022/10/24 17:42:46;;;;;;;13.98;12.68;;;15.80;99.90;;;;;;6187321;23;20253;-96
2022/10/24 17:45:17;;;;;;;14.07;12.68;;;15.70;99.90;;;;;;6188118;23;20167;-96
2022/10/24 17:47:46;;;;;;;13.57;12.20;;;15.70;99.90;;;;;;6187098;23;20246;-95
2022/10/24 17:50:15;;;;;;;11.88;10.93;;;15.60;99.90;;;;;;6186476;23;20205;-94
2022/10/24 17:52:49;;;;;;;11.48;10.32;;;15.60;99.90;;;;;;6186558;23;20193;-95
2022/10/24 17:55:21;;;;;;;8.77;7.97;;;15.60;99.90;;;;;;6186662;23;20173;-96
2022/10/24 17:58:11;;;;;;;10.43;6.88;;;15.60;99.90;;;;;;6185957;23;20190;-96